createdAt,value
2023-05-17T00:00:59.397Z,64073.65
2023-05-17T00:02:01.674Z,64081.04
2023-05-17T00:03:03.631Z,64076.84
2023-05-17T00:04:05.752Z,64082.79
2023-05-17T00:05:09.022Z,64082.90
2023-05-17T00:06:11.495Z,64084.55
2023-05-17T00:07:13.996Z,64089.84
2023-05-17T00:08:16.048Z,64086.21
2023-05-17T00:09:18.259Z,64086.66
2023-05-17T00:10:20.796Z,64092.26
2023-05-17T00:11:22.751Z,64091.71
2023-05-17T00:12:24.780Z,64091.71
2023-05-17T00:13:26.696Z,64095.35
2023-05-17T00:14:28.685Z,64088.41
2023-05-17T00:15:31.055Z,64094.47
2023-05-17T00:16:33.307Z,64094.36
2023-05-17T00:17:35.326Z,64101.96
2023-05-17T00:18:38.485Z,64097.78
2023-05-17T00:19:40.733Z,64095.68
2023-05-17T00:20:42.869Z,64098.87
2023-05-17T00:21:45.425Z,64107.02
2023-05-17T00:22:47.357Z,64103.17
2023-05-17T00:23:49.348Z,64103.17
2023-05-17T00:24:51.278Z,64103.29
2023-05-17T00:25:53.273Z,64107.13
2023-05-17T00:26:55.361Z,64113.09
2023-05-17T00:27:57.250Z,64106.02
2023-05-17T00:28:59.122Z,64109.33
2023-05-17T00:30:01.045Z,64115.40
2023-05-17T00:31:03.040Z,64113.75
2023-05-17T00:32:05.979Z,64111.10
2023-05-17T00:33:08.266Z,64117.60
2023-05-17T00:34:10.299Z,64119.79
2023-05-17T00:35:12.207Z,64117.15
2023-05-17T00:36:14.651Z,64125.20
2023-05-17T00:37:16.626Z,64124.09
2023-05-17T00:38:18.526Z,64122.56
2023-05-17T00:39:20.433Z,64122.11
2023-05-17T00:40:22.555Z,64124.75
2023-05-17T00:41:24.445Z,64123.66
2023-05-17T00:42:26.350Z,64129.50
2023-05-17T00:43:28.232Z,64123.66
2023-05-17T00:44:30.260Z,64124.75
2023-05-17T00:45:32.139Z,64125.20
2023-05-17T00:46:34.138Z,64123.66
2023-05-17T00:47:36.187Z,64118.26
2023-05-17T00:48:39.240Z,64121.45
2023-05-17T00:49:41.514Z,64128.39
2023-05-17T00:50:43.937Z,64129.17
2023-05-17T00:51:49.820Z,64129.17
2023-05-17T00:52:52.435Z,64133.02
2023-05-17T00:53:54.655Z,64122.77
2023-05-17T00:54:56.877Z,64132.36
2023-05-17T00:56:00.059Z,64137.77
2023-05-17T00:57:03.798Z,64136.66
2023-05-17T00:58:05.826Z,64131.91
2023-05-17T00:59:08.535Z,64129.38
2023-05-17T01:00:12.613Z,64135.79
2023-05-17T01:01:15.049Z,64135.34
2023-05-17T01:02:16.964Z,64140.75
2023-05-17T01:03:19.145Z,64133.68
2023-05-17T01:04:21.632Z,64144.48
2023-05-17T01:05:23.840Z,64140.30
2023-05-17T01:06:26.077Z,64137.44
2023-05-17T01:07:28.075Z,64139.52
2023-05-17T01:08:30.719Z,64133.14
2023-05-17T01:09:33.012Z,64132.91
2023-05-17T01:11:09.163Z,64132.48
2023-05-17T01:12:27.256Z,64129.17
2023-05-17T01:13:41.974Z,64137.32
2023-05-17T01:14:59.822Z,64135.79
2023-05-17T01:16:11.908Z,64134.02
2023-05-17T01:17:26.829Z,64139.96
2023-05-17T01:18:36.140Z,64131.91
2023-05-17T01:20:03.155Z,64134.02
2023-05-17T01:21:09.042Z,64125.42
2023-05-17T01:22:37.877Z,64129.71
2023-05-17T01:23:43.662Z,64133.35
2023-05-17T01:25:17.193Z,64128.06
2023-05-17T01:26:35.277Z,64124.21
2023-05-17T01:27:40.393Z,64119.91
2023-05-17T01:28:46.091Z,64121.02
2023-05-17T01:29:50.215Z,64120.90
2023-05-17T01:30:53.509Z,64122.56
2023-05-17T01:31:57.022Z,64125.20
2023-05-17T01:33:01.826Z,64124.21
2023-05-17T01:34:08.451Z,64129.62
2023-05-17T01:35:11.340Z,64129.50
2023-05-17T01:36:13.646Z,64120.57
2023-05-17T01:37:16.759Z,64126.97
2023-05-17T01:38:20.051Z,64126.41
2023-05-17T01:39:22.371Z,64128.06
2023-05-17T01:40:24.945Z,64122.56
2023-05-17T01:41:30.615Z,64124.09
2023-05-17T01:42:33.474Z,64122.34
2023-05-17T01:43:39.140Z,64119.70
2023-05-17T01:44:53.429Z,64120.36
2023-05-17T01:46:18.757Z,64119.25
2023-05-17T01:48:44.675Z,64125.96
2023-05-17T01:49:50.177Z,64120.90
2023-05-17T01:50:55.833Z,64122.56
2023-05-17T01:52:04.549Z,64130.05
2023-05-17T01:54:30.236Z,64128.06
2023-05-17T01:55:45.078Z,64128.51
2023-05-17T01:56:50.426Z,64127.52
2023-05-17T01:57:55.419Z,64132.26
2023-05-17T01:58:59.277Z,64120.90
2023-05-17T02:00:04.585Z,64118.92
2023-05-17T02:01:09.358Z,64125.75
2023-05-17T02:02:11.805Z,64120.46
2023-05-17T02:03:18.340Z,64125.86
2023-05-17T02:04:20.744Z,64123.55
2023-05-17T02:05:23.261Z,64115.94
2023-05-17T02:06:25.472Z,64120.90
2023-05-17T02:07:27.365Z,64120.90
2023-05-17T02:08:29.529Z,64115.50
2023-05-17T02:09:31.499Z,64123.10
2023-05-17T02:10:33.596Z,64123.66
2023-05-17T02:11:35.992Z,64122.44
2023-05-17T02:12:38.007Z,64117.71
2023-05-17T02:13:40.292Z,64123.66
2023-05-17T02:14:42.528Z,64125.75
2023-05-17T02:15:44.463Z,64118.26
2023-05-17T02:16:46.528Z,64121.89
2023-05-17T02:17:49.329Z,64115.50
2023-05-17T02:18:51.610Z,64115.40
2023-05-17T02:19:53.782Z,64117.05
2023-05-17T02:20:55.924Z,64119.91
2023-05-17T02:21:57.800Z,64118.59
2023-05-17T02:22:59.752Z,64116.16
2023-05-17T02:24:01.840Z,64125.20
2023-05-17T02:25:04.885Z,64127.30
2023-05-17T02:26:07.109Z,64120.90
2023-05-17T02:27:09.095Z,64117.27
2023-05-17T02:28:10.989Z,64124.09
2023-05-17T02:29:14.091Z,64121.45
2023-05-17T02:30:18.119Z,64118.80
2023-05-17T02:31:20.384Z,64125.86
2023-05-17T02:32:22.615Z,64120.36
2023-05-17T02:33:24.797Z,64126.86
2023-05-17T02:34:26.934Z,64124.87
2023-05-17T02:35:29.123Z,64130.61
2023-05-17T02:36:31.612Z,64134.02
2023-05-17T02:37:33.576Z,64133.02
2023-05-17T02:38:35.498Z,64139.96
2023-05-17T02:39:37.398Z,64132.48
2023-05-17T02:40:41.486Z,64135.79
2023-05-17T02:41:43.857Z,64133.57
2023-05-17T02:42:45.757Z,64135.22
2023-05-17T02:43:47.767Z,64135.79
2023-05-17T02:44:49.683Z,64132.69
2023-05-17T02:45:51.663Z,64135.79
2023-05-17T02:46:53.698Z,64140.75
2023-05-17T02:47:55.716Z,64135.79
2023-05-17T02:48:57.850Z,64135.79
2023-05-17T02:49:59.813Z,64137.98
2023-05-17T02:51:01.807Z,64141.17
2023-05-17T02:52:04.538Z,64127.73
2023-05-17T02:53:06.432Z,64135.79
2023-05-17T02:54:08.491Z,64135.79
2023-05-17T02:55:10.422Z,64137.32
2023-05-17T02:56:12.622Z,64135.22
2023-05-17T02:57:14.653Z,64137.98
2023-05-17T02:58:16.565Z,64140.18
2023-05-17T02:59:18.470Z,64137.44
2023-05-17T03:00:20.844Z,64136.33
2023-05-17T03:01:23.359Z,64137.44
2023-05-17T03:02:25.514Z,64142.38
2023-05-17T03:03:27.891Z,64139.42
2023-05-17T03:04:32.309Z,64141.29
2023-05-17T03:05:34.478Z,64134.68
2023-05-17T03:06:37.810Z,64140.63
2023-05-17T03:07:39.726Z,64136.45
2023-05-17T03:08:42.005Z,64141.17
2023-05-17T03:09:43.952Z,64140.75
2023-05-17T03:10:46.948Z,64142.28
2023-05-17T03:11:49.457Z,64137.98
2023-05-17T03:12:51.467Z,64135.79
2023-05-17T03:13:53.504Z,64136.21
2023-05-17T03:14:55.523Z,64137.98
2023-05-17T03:15:57.426Z,64140.75
2023-05-17T03:16:59.646Z,64135.34
2023-05-17T03:18:01.751Z,64140.30
2023-05-17T03:19:04.038Z,64138.64
2023-05-17T03:20:07.980Z,64144.69
2023-05-17T03:21:11.369Z,64151.64
2023-05-17T03:22:13.536Z,64156.15
2023-05-17T03:23:15.536Z,64152.86
2023-05-17T03:24:17.498Z,64156.72
2023-05-17T03:25:19.429Z,64169.17
2023-05-17T03:26:21.454Z,64158.91
2023-05-17T03:27:23.937Z,64158.91
2023-05-17T03:28:26.130Z,64155.06
2023-05-17T03:29:28.032Z,64162.55
2023-05-17T03:30:30.121Z,64160.45
2023-05-17T03:31:34.250Z,64156.15
2023-05-17T03:32:41.457Z,64166.41
2023-05-17T03:33:44.404Z,64164.54
2023-05-17T03:34:46.433Z,64172.15
2023-05-17T03:35:48.620Z,64175.88
2023-05-17T03:36:50.973Z,64179.30
2023-05-17T03:37:53.921Z,64177.20
2023-05-17T03:38:59.501Z,64184.84
2023-05-17T03:40:01.658Z,64186.49
2023-05-17T03:41:03.888Z,64191.34
2023-05-17T03:42:06.073Z,64198.40
2023-05-17T03:43:08.173Z,64197.29
2023-05-17T03:44:10.233Z,64188.69
2023-05-17T03:45:12.313Z,64193.11
2023-05-17T03:46:14.577Z,64194.21
2023-05-17T03:47:16.669Z,64183.30
2023-05-17T03:48:18.611Z,64188.26
2023-05-17T03:49:22.483Z,64190.25
2023-05-17T03:50:27.613Z,64188.80
2023-05-17T03:51:29.757Z,64190.91
2023-05-17T03:52:31.716Z,64187.60
2023-05-17T03:53:33.659Z,64196.86
2023-05-17T03:54:35.698Z,64186.70
2023-05-17T03:55:37.691Z,64195.87
2023-05-17T03:56:40.016Z,64202.92
2023-05-17T03:57:43.858Z,64205.23
2023-05-17T03:58:45.948Z,64208.09
2023-05-17T03:59:47.830Z,64208.54
2023-05-17T04:00:49.877Z,64209.74
2023-05-17T04:01:51.839Z,64213.50
2023-05-17T04:02:54.543Z,64222.21
2023-05-17T04:03:56.706Z,64220.66
2023-05-17T04:04:58.671Z,64223.98
2023-05-17T04:06:04.789Z,64222.87
2023-05-17T04:07:06.710Z,64220.12
2023-05-17T04:08:08.809Z,64223.31
2023-05-17T04:09:10.865Z,64228.94
2023-05-17T04:10:13.342Z,64222.53
2023-05-17T04:11:15.217Z,64237.21
2023-05-17T04:12:17.979Z,64243.15
2023-05-17T04:13:19.858Z,64239.41
2023-05-17T04:14:21.748Z,64241.61
2023-05-17T04:15:24.676Z,64248.23
2023-05-17T04:16:26.904Z,64256.51
2023-05-17T04:17:28.959Z,64263.67
2023-05-17T04:18:36.799Z,64260.91
2023-05-17T04:19:39.014Z,64269.52
2023-05-17T04:20:42.207Z,64269.30
2023-05-17T04:21:44.565Z,64266.53
2023-05-17T04:22:46.433Z,64269.73
2023-05-17T04:23:48.422Z,64270.95
2023-05-17T04:24:50.418Z,64277.57
2023-05-17T04:25:52.317Z,64284.08
2023-05-17T04:26:54.470Z,64283.09
2023-05-17T04:27:56.416Z,64286.28
2023-05-17T04:28:58.302Z,64286.94
2023-05-17T04:30:00.303Z,64293.45
2023-05-17T04:31:05.161Z,64292.36
2023-05-17T04:32:08.131Z,64288.60
2023-05-17T04:33:11.457Z,64297.89
2023-05-17T04:34:15.794Z,64303.95
2023-05-17T04:35:18.000Z,64301.30
2023-05-17T04:36:19.989Z,64305.61
2023-05-17T04:37:22.331Z,64308.92
2023-05-17T04:38:24.344Z,64308.04
2023-05-17T04:39:26.409Z,64314.43
2023-05-17T04:40:29.050Z,64313.88
2023-05-17T04:41:31.093Z,64317.86
2023-05-17T04:42:32.986Z,64318.40
2023-05-17T04:43:34.960Z,64322.16
2023-05-17T04:44:36.842Z,64323.28
2023-05-17T04:45:38.730Z,64320.62
2023-05-17T04:46:40.729Z,64326.23
2023-05-17T04:47:42.662Z,64330.11
2023-05-17T04:48:45.653Z,64326.79
2023-05-17T04:49:47.851Z,64334.96
2023-05-17T04:50:49.824Z,64334.30
2023-05-17T04:51:52.041Z,64332.76
2023-05-17T04:52:53.950Z,64334.85
2023-05-17T04:53:56.180Z,64333.30
2023-05-17T04:54:58.258Z,64338.73
2023-05-17T04:56:00.349Z,64342.58
2023-05-17T04:57:02.391Z,64346.44
2023-05-17T04:58:04.275Z,64345.33
2023-05-17T04:59:06.158Z,64353.07
2023-05-17T05:00:09.250Z,64348.21
2023-05-17T05:01:11.279Z,64361.89
2023-05-17T05:02:13.168Z,64357.70
2023-05-17T05:03:15.662Z,64367.41
2023-05-17T05:04:17.986Z,64364.21
2023-05-17T05:05:20.076Z,64366.96
2023-05-17T05:06:22.079Z,64367.41
2023-05-17T05:07:24.173Z,64374.04
2023-05-17T05:08:26.062Z,64376.80
2023-05-17T05:09:27.963Z,64376.80
2023-05-17T05:10:30.140Z,64379.10
2023-05-17T05:11:32.096Z,64380.75
2023-05-17T05:12:33.975Z,64380.32
2023-05-17T05:13:35.880Z,64384.18
2023-05-17T05:14:37.781Z,64393.92
2023-05-17T05:15:39.804Z,64385.84
2023-05-17T05:16:41.953Z,64391.26
2023-05-17T05:17:44.050Z,64397.21
2023-05-17T05:18:46.189Z,64400.09
2023-05-17T05:19:48.393Z,64396.87
2023-05-17T05:20:50.813Z,64405.50
2023-05-17T05:21:52.951Z,64410.03
2023-05-17T05:22:54.871Z,64417.23
2023-05-17T05:23:56.789Z,64418.88
2023-05-17T05:24:58.917Z,64427.06
2023-05-17T05:26:00.977Z,64424.95
2023-05-17T05:27:05.534Z,64424.20
2023-05-17T05:28:07.055Z,64426.60
2023-05-17T05:29:08.955Z,64424.49
2023-05-17T05:30:12.827Z,64435.98
2023-05-17T05:31:14.749Z,64438.20
2023-05-17T05:32:16.645Z,64438.86
2023-05-17T05:33:19.496Z,64449.15
2023-05-17T05:34:21.597Z,64449.15
2023-05-17T05:35:24.066Z,64447.59
2023-05-17T05:36:26.075Z,64453.56
2023-05-17T05:37:28.073Z,64464.05
2023-05-17T05:38:30.063Z,64464.16
2023-05-17T05:39:32.054Z,64471.23
2023-05-17T05:40:34.048Z,64468.13
2023-05-17T05:41:36.200Z,64479.72
2023-05-17T05:42:38.160Z,64480.09
2023-05-17T05:43:40.112Z,64481.95
2023-05-17T05:44:42.258Z,64484.49
2023-05-17T05:45:44.670Z,64487.92
2023-05-17T05:46:46.799Z,64496.10
2023-05-17T05:47:49.547Z,64506.39
2023-05-17T05:48:51.841Z,64505.48
2023-05-17T05:49:54.011Z,64501.27
2023-05-17T05:50:57.930Z,64507.14
2023-05-17T05:51:59.928Z,64509.24
2023-05-17T05:53:14.378Z,64517.66
2023-05-17T05:54:05.965Z,64521.54
2023-05-17T05:55:08.682Z,64522.83
2023-05-17T05:56:10.956Z,64536.91
2023-05-17T05:57:13.037Z,64536.91
2023-05-17T05:58:15.429Z,64538.41
2023-05-17T05:59:17.353Z,64557.45
2023-05-17T06:00:19.901Z,64552.69
2023-05-17T06:01:22.109Z,64560.96
2023-05-17T06:02:24.038Z,64570.27
2023-05-17T06:03:26.231Z,64569.82
2023-05-17T06:04:36.693Z,64571.57
2023-05-17T06:05:32.313Z,64587.40
2023-05-17T06:06:35.398Z,64586.40
2023-05-17T06:07:37.725Z,64597.25
2023-05-17T06:08:40.782Z,64590.83
2023-05-17T06:09:43.234Z,64611.66
2023-05-17T06:10:45.661Z,64610.55
2023-05-17T06:11:47.589Z,64606.33
2023-05-17T06:12:49.712Z,64604.67
2023-05-17T06:13:51.617Z,64620.59
2023-05-17T06:14:53.516Z,64618.95
2023-05-17T06:15:55.560Z,64625.03
2023-05-17T06:16:57.974Z,64631.56
2023-05-17T06:18:00.228Z,64635.53
2023-05-17T06:19:03.214Z,64627.80
2023-05-17T06:20:06.618Z,64620.05
2023-05-17T06:21:08.670Z,64622.01
2023-05-17T06:22:14.518Z,64638.39
2023-05-17T06:23:16.464Z,64632.87
2023-05-17T06:24:18.354Z,64645.95
2023-05-17T06:25:20.465Z,64652.13
2023-05-17T06:26:22.467Z,64663.65
2023-05-17T06:27:24.519Z,64658.77
2023-05-17T06:28:26.431Z,64655.54
2023-05-17T06:29:28.401Z,64664.96
2023-05-17T06:30:31.048Z,64661.64
2023-05-17T06:31:33.457Z,64668.28
2023-05-17T06:32:35.761Z,64682.46
2023-05-17T06:33:37.903Z,64694.06
2023-05-17T06:34:39.859Z,64694.82
2023-05-17T06:35:55.715Z,64700.81
2023-05-17T06:36:46.812Z,64704.81
2023-05-17T06:37:50.592Z,64707.48
2023-05-17T06:38:52.742Z,64703.48
2023-05-17T06:40:10.164Z,64722.97
2023-05-17T06:41:07.786Z,64726.95
2023-05-17T06:42:09.675Z,64731.83
2023-05-17T06:43:11.733Z,64736.81
2023-05-17T06:44:13.777Z,64743.35
2023-05-17T06:45:15.762Z,64738.12
2023-05-17T06:46:17.995Z,64756.64
2023-05-17T06:47:20.049Z,64770.48
2023-05-17T06:48:22.591Z,64771.68
2023-05-17T06:49:24.895Z,64769.20
2023-05-17T06:50:27.493Z,64776.31
2023-05-17T06:51:29.796Z,64798.92
2023-05-17T06:52:31.911Z,64810.45
2023-05-17T06:53:33.787Z,64812.87
2023-05-17T06:54:35.690Z,64778.62
2023-05-17T06:55:37.659Z,64814.89
2023-05-17T06:56:41.076Z,64845.26
2023-05-17T06:57:43.017Z,64864.29
2023-05-17T06:58:45.162Z,64873.69
2023-05-17T06:59:47.171Z,64893.57
2023-05-17T07:00:49.262Z,64908.72
2023-05-17T07:01:51.289Z,64936.90
2023-05-17T07:02:53.283Z,64945.22
2023-05-17T07:03:55.441Z,64927.48
2023-05-17T07:04:57.625Z,64927.93
2023-05-17T07:05:59.573Z,64910.75
2023-05-17T07:07:02.472Z,64920.91
2023-05-17T07:08:04.572Z,64910.20
2023-05-17T07:09:06.673Z,64931.18
2023-05-17T07:10:09.351Z,64932.56
2023-05-17T07:11:12.947Z,64946.96
2023-05-17T07:12:14.850Z,64978.96
2023-05-17T07:13:16.779Z,64986.82
2023-05-17T07:14:18.765Z,64985.80
2023-05-17T07:15:20.888Z,64912.52
2023-05-17T07:16:23.010Z,64982.95
2023-05-17T07:17:24.905Z,65016.21
2023-05-17T07:18:27.366Z,65019.18
2023-05-17T07:19:29.558Z,65036.17
2023-05-17T07:20:33.188Z,65057.27
2023-05-17T07:21:35.209Z,65067.36
2023-05-17T07:22:37.268Z,65075.04
2023-05-17T07:23:39.151Z,65055.80
2023-05-17T07:24:41.057Z,65056.82
2023-05-17T07:25:42.946Z,65041.16
2023-05-17T07:26:46.508Z,65009.55
2023-05-17T07:27:48.528Z,65014.62
2023-05-17T07:28:50.852Z,64999.02
2023-05-17T07:29:52.905Z,64957.41
2023-05-17T07:30:54.987Z,64974.05
2023-05-17T07:31:57.138Z,64952.32
2023-05-17T07:32:59.626Z,64972.39
2023-05-17T07:34:02.048Z,64979.15
2023-05-17T07:35:05.153Z,64980.26
2023-05-17T07:36:08.089Z,64985.16
2023-05-17T07:37:10.451Z,64982.84
2023-05-17T07:38:12.860Z,65008.36
2023-05-17T07:39:15.035Z,65000.04
2023-05-17T07:40:17.319Z,65011.77
2023-05-17T07:41:19.221Z,65008.62
2023-05-17T07:42:21.346Z,65003.45
2023-05-17T07:43:23.752Z,65026.20
2023-05-17T07:44:25.969Z,65023.05
2023-05-17T07:45:31.158Z,65018.43
2023-05-17T07:46:33.594Z,65011.30
2023-05-17T07:47:35.743Z,65001.70
2023-05-17T07:48:37.910Z,65006.40
2023-05-17T07:49:39.936Z,64994.03
2023-05-17T07:50:44.154Z,65000.68
2023-05-17T07:51:46.581Z,64990.23
2023-05-17T07:52:48.682Z,65004.66
2023-05-17T07:53:50.664Z,64946.52
2023-05-17T07:54:53.099Z,65004.56
2023-05-17T07:55:55.786Z,65029.51
2023-05-17T07:56:58.174Z,65043.50
2023-05-17T07:58:00.339Z,65045.26
2023-05-17T07:59:02.570Z,65041.73
2023-05-17T08:00:06.958Z,65028.41
2023-05-17T08:01:09.085Z,65033.04
2023-05-17T08:02:11.216Z,65009.73
2023-05-17T08:03:14.579Z,65026.20
2023-05-17T08:04:17.295Z,65033.96
2023-05-17T08:05:19.280Z,65026.65
2023-05-17T08:06:24.141Z,65020.84
2023-05-17T08:07:28.001Z,65023.60
2023-05-17T08:08:29.922Z,65014.55
2023-05-17T08:09:31.856Z,65021.75
2023-05-17T08:10:33.967Z,65013.43
2023-05-17T08:11:35.971Z,64987.37
2023-05-17T08:12:38.002Z,64998.00
2023-05-17T08:13:39.918Z,64981.83
2023-05-17T08:14:42.038Z,64962.85
2023-05-17T08:15:45.293Z,64959.08
2023-05-17T08:16:47.589Z,64993.11
2023-05-17T08:17:49.713Z,65010.67
2023-05-17T08:18:52.123Z,64982.37
2023-05-17T08:19:54.327Z,64978.03
2023-05-17T08:20:57.041Z,65003.00
2023-05-17T08:22:01.056Z,64985.80
2023-05-17T08:23:03.096Z,64959.62
2023-05-17T08:24:05.881Z,64932.46
2023-05-17T08:25:08.595Z,64954.63
2023-05-17T08:26:10.919Z,64986.17
2023-05-17T08:27:12.859Z,64989.50
2023-05-17T08:28:14.999Z,65001.60
2023-05-17T08:29:16.906Z,64988.48
2023-05-17T08:30:28.643Z,64957.41
2023-05-17T08:31:22.754Z,64964.17
2023-05-17T08:32:25.162Z,64980.71
2023-05-17T08:33:27.294Z,64946.31
2023-05-17T08:34:29.502Z,64948.55
2023-05-17T08:35:31.590Z,64953.43
2023-05-17T08:36:33.954Z,64945.77
2023-05-17T08:37:36.137Z,64941.34
2023-05-17T08:38:38.011Z,64959.44
2023-05-17T08:39:39.933Z,64921.38
2023-05-17T08:40:42.236Z,64942.07
2023-05-17T08:41:46.544Z,64918.60
2023-05-17T08:42:50.677Z,64947.79
2023-05-17T08:43:54.577Z,64950.01
2023-05-17T08:44:56.795Z,64953.62
2023-05-17T08:45:59.054Z,64957.88
2023-05-17T08:47:03.350Z,64966.30
2023-05-17T08:48:06.377Z,64966.85
2023-05-17T08:49:10.040Z,64922.39
2023-05-17T08:50:13.049Z,64934.22
2023-05-17T08:51:17.220Z,64958.06
2023-05-17T08:52:20.206Z,64982.74
2023-05-17T08:53:23.748Z,64991.25
2023-05-17T08:54:26.345Z,64989.21
2023-05-17T08:55:30.982Z,64995.14
2023-05-17T08:56:34.732Z,64998.65
2023-05-17T08:57:38.634Z,65011.95
2023-05-17T08:58:55.679Z,65008.07
2023-05-17T08:59:47.698Z,65013.43
2023-05-17T09:00:52.198Z,65023.96
2023-05-17T09:01:54.906Z,65024.54
2023-05-17T09:02:57.131Z,64973.04
2023-05-17T09:04:00.544Z,64999.02
2023-05-17T09:05:03.326Z,65003.91
2023-05-17T09:06:06.821Z,64981.83
2023-05-17T09:07:08.886Z,65008.44
2023-05-17T09:08:11.722Z,65002.35
2023-05-17T09:09:14.527Z,64980.89
2023-05-17T09:10:16.911Z,64988.66
2023-05-17T09:12:37.214Z,65004.20
2023-05-17T09:13:39.204Z,64999.10
2023-05-17T09:14:41.079Z,64997.90
2023-05-17T09:15:44.579Z,65003.36
2023-05-17T09:16:46.808Z,64996.61
2023-05-17T09:17:53.100Z,64987.37
2023-05-17T09:18:57.450Z,64975.72
2023-05-17T09:19:59.961Z,64983.96
2023-05-17T09:21:03.160Z,64985.16
2023-05-17T09:22:06.681Z,64995.69
2023-05-17T09:23:10.208Z,65003.45
2023-05-17T09:24:13.544Z,65020.56
2023-05-17T09:25:21.990Z,64976.84
2023-05-17T09:26:25.676Z,65012.34
2023-05-17T09:27:30.895Z,65010.75
2023-05-17T09:28:42.043Z,64991.25
2023-05-17T09:29:44.370Z,64964.74
2023-05-17T09:30:48.594Z,64987.91
2023-05-17T09:31:50.624Z,65013.43
2023-05-17T09:32:52.593Z,64973.61
2023-05-17T09:33:54.702Z,64988.48
2023-05-17T09:34:58.748Z,65018.43
2023-05-17T09:36:01.671Z,65030.63
2023-05-17T09:37:04.512Z,65020.64
2023-05-17T09:38:08.856Z,65030.16
2023-05-17T09:39:12.358Z,65032.19
2023-05-17T09:40:24.332Z,65023.52
2023-05-17T09:41:29.429Z,65026.75
2023-05-17T09:42:36.222Z,65000.76
2023-05-17T09:43:38.578Z,65006.12
2023-05-17T09:44:51.627Z,65045.71
2023-05-17T09:45:58.062Z,65042.85
2023-05-17T09:47:00.774Z,65071.24
2023-05-17T09:48:17.143Z,65077.43
2023-05-17T09:49:19.692Z,65072.80
2023-05-17T09:50:25.326Z,65099.45
2023-05-17T09:51:33.959Z,65131.20
2023-05-17T09:52:36.999Z,65137.39
2023-05-17T09:53:39.092Z,65154.61
2023-05-17T09:54:42.206Z,65159.98
2023-05-17T09:55:47.583Z,65166.64
2023-05-17T09:56:53.934Z,65126.57
2023-05-17T09:58:00.585Z,65075.12
2023-05-17T09:59:04.429Z,65113.88
2023-05-17T10:00:08.864Z,65149.51
2023-05-17T10:01:11.224Z,65152.94
2023-05-17T10:02:21.992Z,65142.29
2023-05-17T10:03:32.484Z,65127.22
2023-05-17T10:04:36.776Z,65119.64
2023-05-17T10:05:42.550Z,65105.54
2023-05-17T10:06:49.847Z,65116.09
2023-05-17T10:07:50.173Z,65111.19
2023-05-17T10:08:55.318Z,65100.65
2023-05-17T10:09:57.843Z,65116.30
2023-05-17T10:11:06.963Z,65120.54
2023-05-17T10:12:11.828Z,65114.52
2023-05-17T10:13:17.038Z,65119.64
2023-05-17T10:14:28.197Z,65137.67
2023-05-17T10:15:31.075Z,65125.56
2023-05-17T10:16:34.157Z,65131.85
2023-05-17T10:17:38.337Z,65132.12
2023-05-17T10:18:41.192Z,65124.54
2023-05-17T10:19:45.009Z,65130.08
2023-05-17T10:20:48.015Z,65132.30
2023-05-17T10:21:52.324Z,65126.11
2023-05-17T10:22:58.608Z,65129.98
2023-05-17T10:24:05.937Z,65135.45
2023-05-17T10:25:09.181Z,65122.77
2023-05-17T10:26:14.007Z,65110.00
2023-05-17T10:27:16.659Z,65111.11
2023-05-17T10:28:20.296Z,65112.78
2023-05-17T10:29:23.252Z,65092.32
2023-05-17T10:30:28.119Z,65109.05
2023-05-17T10:31:31.880Z,65102.86
2023-05-17T10:32:33.814Z,65121.68
2023-05-17T10:33:37.716Z,65118.87
2023-05-17T10:34:40.266Z,65116.09
2023-05-17T10:35:43.468Z,65105.64
2023-05-17T10:36:47.971Z,65116.19
2023-05-17T10:37:49.961Z,65114.34
2023-05-17T10:38:52.854Z,65113.40
2023-05-17T10:39:56.287Z,65112.86
2023-05-17T10:41:00.488Z,65112.13
2023-05-17T10:42:14.942Z,65092.79
2023-05-17T10:43:11.968Z,65090.11
2023-05-17T10:44:16.122Z,65092.79
2023-05-17T10:45:23.784Z,65093.44
2023-05-17T10:46:29.205Z,65099.63
2023-05-17T10:47:33.446Z,65106.76
2023-05-17T10:48:36.467Z,65108.80
2023-05-17T10:49:38.808Z,65099.45
2023-05-17T10:50:47.419Z,65108.33
2023-05-17T10:51:45.623Z,65105.74
2023-05-17T10:52:49.054Z,65110.09
2023-05-17T10:54:12.471Z,65120.54
2023-05-17T10:55:19.438Z,65113.32
2023-05-17T10:56:21.476Z,65111.29
2023-05-17T10:57:50.003Z,65109.05
2023-05-17T10:58:38.976Z,65125.56
2023-05-17T11:00:01.111Z,65112.78
2023-05-17T11:01:03.084Z,65102.31
2023-05-17T11:02:09.399Z,65101.84
2023-05-17T11:03:14.045Z,65107.86
2023-05-17T11:04:22.159Z,65107.31
2023-05-17T11:05:26.134Z,65105.09
2023-05-17T11:06:32.114Z,65110.64
2023-05-17T11:07:34.176Z,65101.84
2023-05-17T11:08:36.857Z,65108.33
2023-05-17T11:09:40.074Z,65110.09
2023-05-17T11:11:07.803Z,65116.73
2023-05-17T11:12:11.432Z,65118.32
2023-05-17T11:13:27.448Z,65110.54
2023-05-17T11:14:47.383Z,65111.74
2023-05-17T11:16:03.640Z,65118.99
2023-05-17T11:18:30.519Z,65128.24
2023-05-17T11:19:24.965Z,65116.09
2023-05-17T11:20:32.955Z,65107.86
2023-05-17T11:21:35.278Z,65105.17
2023-05-17T11:23:04.830Z,65085.21
2023-05-17T11:24:07.222Z,65090.75
2023-05-17T11:25:12.255Z,65085.01
2023-05-17T11:26:21.105Z,65091.12
2023-05-17T11:27:23.619Z,65091.22
2023-05-17T11:28:26.033Z,65095.57
2023-05-17T11:29:29.237Z,65087.24
2023-05-17T11:30:32.884Z,65092.32
2023-05-17T11:31:37.016Z,65104.35
2023-05-17T11:32:39.098Z,65091.67
2023-05-17T11:33:45.719Z,65092.32
2023-05-17T11:34:52.184Z,65105.00
2023-05-17T11:35:55.000Z,65104.07
2023-05-17T11:36:58.730Z,65122.77
2023-05-17T11:38:13.168Z,65120.09
2023-05-17T11:39:18.196Z,65131.57
2023-05-17T11:40:27.325Z,65132.12
2023-05-17T11:41:29.935Z,65117.97
2023-05-17T11:42:34.056Z,65106.84
2023-05-17T11:43:37.841Z,65121.68
2023-05-17T11:44:40.594Z,65124.54
2023-05-17T11:45:52.914Z,65121.30
2023-05-17T11:47:05.977Z,65117.40
2023-05-17T11:48:09.084Z,65123.99
2023-05-17T11:49:17.761Z,65122.23
2023-05-17T11:50:17.487Z,65135.63
2023-05-17T11:51:21.367Z,65132.67
2023-05-17T11:52:27.345Z,65117.85
2023-05-17T11:53:30.989Z,65125.01
2023-05-17T11:54:33.746Z,65131.20
2023-05-17T11:55:42.146Z,65133.89
2023-05-17T11:56:44.554Z,65138.96
2023-05-17T11:57:47.332Z,65147.94
2023-05-17T11:58:53.885Z,65143.86
2023-05-17T12:00:01.004Z,65143.31
2023-05-17T12:01:03.094Z,65153.86
2023-05-17T12:02:05.578Z,65144.98
2023-05-17T12:03:21.607Z,65136.75
2023-05-17T12:04:25.665Z,65134.06
2023-05-17T12:05:28.756Z,65146.75
2023-05-17T12:06:31.111Z,65141.10
2023-05-17T12:07:33.720Z,65141.82
2023-05-17T12:08:37.896Z,65153.86
2023-05-17T12:09:40.797Z,65137.94
2023-05-17T12:10:51.868Z,65165.05
2023-05-17T12:11:54.027Z,65166.55
2023-05-17T12:12:55.938Z,65162.37
2023-05-17T12:13:57.806Z,65166.72
2023-05-17T12:15:01.207Z,65164.98
2023-05-17T12:16:13.234Z,65160.15
2023-05-17T12:18:43.043Z,65175.80
2023-05-17T12:19:45.195Z,65183.21
2023-05-17T12:20:57.328Z,65173.86
2023-05-17T12:22:10.698Z,65186.15
2023-05-17T12:23:12.648Z,65192.74
2023-05-17T12:24:15.279Z,65184.48
2023-05-17T12:25:21.632Z,65169.58
2023-05-17T12:26:24.018Z,65178.86
2023-05-17T12:27:26.460Z,65167.19
2023-05-17T12:28:28.435Z,65152.19
2023-05-17T12:29:30.443Z,65138.49
2023-05-17T12:30:34.763Z,65153.31
2023-05-17T12:31:43.221Z,65171.00
2023-05-17T12:32:46.496Z,65169.68
2023-05-17T12:33:48.892Z,65176.17
2023-05-17T12:34:51.432Z,65183.29